Más de esta sección

TAF

     

                                                                                              SANTO DOMINGO 13 DE ABRIL 2024

                                                                                                     AEROP. INT. LAS AMERICAS JFPG-

 

FTDR31 MDSD 132200Z

TAF

 

TAF MDPP 132200Z 1400/1500 09010KT 7000-RA FEW016CB BKN017 PROB30 1400/1406 7000-TSRA FEW014CB BKN016 SCT070 BECMG 1402/1404 00000KT=

 

TAF MDST 132200Z 1400/1500 11008KT  9999 SCT018 BKN080 PROB30 1400/1406 7000 –RA
BKN015 BKN070 BECMG 1406/1408 00000KT TEMPO 1408/1412 4000 BR BKN010= 

 

TAF MDPC 132200Z 1400/1500 07012KT 9999 FEW020 SCT070=

 

TAF MDBH 132200Z 1400/1500 13010KT 9999 SCT020 SCT100 BECMG 1404/1406 00000KT=

 

TAF MDJB 132200Z 1400/1500 00000KT 9999 SCT018 SCT080 PROB30 TEMPO 1400/1406 7000 –RA BKN014 BKN070=

 

TAF MDSD 132200Z 1400/1500 22006KT 9999 SCT018 PROB30 1401/1407 7000-TSRA FEW014CB BKN016 BKN070 BECMG 1402/1404 03004KT=

 

TAF MDLR 132200Z 1400/1500 09008KT 9999 FEW018CB SCT018 SCT070 PROB40 1400/1406 5000 TSRA FEW014CB BKN016 BKN070 BECMG 1400/1402 00000KT=

 

TAF MDCY 132200Z 1400/1500 07010KT 8000 VCSH SCT017 BKN070 PROB40 1401/1407 6000 RA BKN016
OVC070=

 

MDPP AEROPUERTO INTERNACIONAL LA UNION PUERTO PLATA

MDST AEROPUERTO INTERNACIONAL DE SANTIAGO

MDPC AEROPUERTO INTERNACIONAL PUNTA CANA

MDBH AEROPUERTO INTERNACIONAL DE BARAHONA

MDJB AEROPUERTO INTERNACIONAL JOAQUIN BALAGUER

MDSD AEROPUERTO INTERNACIONAL LAS AMERICAS

MDLR AEROPUERTO INTERNACIONAL LA ROMANA

MDCY AEROPUERTO INTERNACIONAL DE CATEY

 

BILLY DE LA CRUZ

MDPP// K. VERAS

MDST// L. JIMENEZ

MDPC// HATY MOTA

MDBH//D. OGANDO

MDJB//B. MEDRANO

MDLR// A. ESPINOSA

MDCY// FLORENTINO